Terminal Aerodrome Forecast
Issued by NWS Wilmington, OH

Current Version | Previous Version | Graphics & Text | Print | Product List | Glossary On
Versions: 1 2 3 4 5 6 7 8 9 10 11 12 13 14 15 16
000
FTUS41 KILN 281700
TAFILN
TAF
KILN 281737Z 2818/2918 23015G23KT P6SM -SHRA SCT025 OVC070
      TEMPO 2818/2819 3SM -SHRA BR BKN025
     FM281900 24014KT P6SM BKN022 OVC050
     FM282000 25014KT P6SM BKN050 OVC100
     FM282200 26012KT P6SM SCT100 OVC200
     FM290100 27006KT P6SM SCT200
     FM291500 26011KT P6SM SCT035=

USA.gov is the U.S. government's official web portal to all federal, state and local government web resources and services.